createdAt,value
2017-11-08T00:02:24.747Z,25.00
2017-11-08T00:05:26.661Z,24.87
2017-11-08T00:08:28.595Z,27.60
2017-11-08T00:11:30.607Z,27.73
2017-11-08T00:14:33.384Z,21.97
2017-11-08T00:17:35.307Z,24.43
2017-11-08T00:20:37.243Z,23.63
2017-11-08T00:23:39.242Z,28.33
2017-11-08T00:26:41.648Z,31.73
2017-11-08T00:29:44.314Z,23.50
2017-11-08T00:32:46.309Z,28.77
2017-11-08T00:35:49.023Z,22.37
2017-11-08T00:38:51.421Z,28.27
2017-11-08T00:41:54.201Z,24.53
2017-11-08T00:44:56.922Z,22.77
2017-11-08T00:47:59.589Z,32.50
2017-11-08T00:51:01.873Z,27.27
2017-11-08T00:54:03.893Z,24.37
2017-11-08T00:57:06.994Z,25.70
2017-11-08T01:00:08.888Z,33.40
2017-11-08T01:03:11.571Z,29.73
2017-11-08T01:06:13.466Z,30.50
2017-11-08T01:09:16.443Z,26.47
2017-11-08T01:12:18.447Z,28.37
2017-11-08T01:15:21.201Z,25.77
2017-11-08T01:18:23.837Z,33.70
2017-11-08T01:21:26.523Z,29.73
2017-11-08T01:24:28.530Z,31.03
2017-11-08T01:27:30.789Z,24.90
2017-11-08T01:30:32.844Z,29.07
2017-11-08T01:33:35.088Z,28.33
2017-11-08T01:36:37.022Z,31.23
2017-11-08T01:39:39.377Z,28.93
2017-11-08T01:42:42.241Z,29.67
2017-11-08T01:45:44.462Z,25.07
2017-11-08T01:48:47.234Z,30.90
2017-11-08T01:51:49.229Z,32.63
2017-11-08T01:54:51.153Z,31.03
2017-11-08T01:57:53.430Z,30.23
2017-11-08T02:00:56.218Z,37.43
2017-11-08T02:03:58.151Z,34.30
2017-11-08T02:07:00.037Z,34.80
2017-11-08T02:10:02.223Z,30.83
2017-11-08T02:13:04.138Z,40.07
2017-11-08T02:16:06.955Z,37.83
2017-11-08T02:19:09.746Z,35.43
2017-11-08T02:22:11.738Z,35.07
2017-11-08T02:25:15.037Z,33.23
2017-11-08T02:28:18.663Z,37.83
2017-11-08T02:31:20.569Z,34.17
2017-11-08T02:34:23.559Z,37.93
2017-11-08T02:37:25.479Z,33.37
2017-11-08T02:40:27.417Z,32.80
2017-11-08T02:43:29.518Z,39.50
2017-11-08T02:46:32.518Z,40.70
2017-11-08T02:49:35.474Z,37.00
2017-11-08T02:52:37.461Z,37.27
2017-11-08T02:55:39.358Z,40.47
2017-11-08T02:58:41.784Z,35.40
2017-11-08T03:01:44.554Z,43.03
2017-11-08T03:04:46.498Z,44.23
2017-11-08T03:07:48.418Z,37.50
2017-11-08T03:10:50.342Z,38.07
2017-11-08T03:13:53.011Z,39.07
2017-11-08T03:16:55.257Z,46.83
2017-11-08T03:19:57.262Z,31.10
2017-11-08T03:22:59.505Z,46.80
2017-11-08T03:26:02.255Z,48.83
2017-11-08T03:29:04.460Z,43.67
2017-11-08T03:32:06.433Z,37.07
2017-11-08T03:35:08.386Z,42.00
2017-11-08T03:38:10.277Z,38.10
2017-11-08T03:41:12.579Z,44.40
2017-11-08T03:44:14.497Z,40.40
2017-11-08T03:47:17.274Z,42.00
2017-11-08T03:50:19.221Z,42.03
2017-11-08T03:53:21.226Z,42.57
2017-11-08T03:56:23.178Z,43.17
2017-11-08T03:59:25.116Z,48.57
2017-11-08T04:02:27.129Z,45.20
2017-11-08T04:05:29.305Z,50.17
2017-11-08T04:08:32.066Z,47.17
2017-11-08T04:11:34.293Z,43.47
2017-11-08T04:14:36.978Z,53.43
2017-11-08T04:17:40.520Z,43.97
2017-11-08T04:20:43.201Z,43.43
2017-11-08T04:23:46.160Z,45.77
2017-11-08T04:26:48.090Z,48.87
2017-11-08T04:29:50.347Z,47.90
2017-11-08T04:32:52.240Z,44.50
2017-11-08T04:35:54.451Z,49.20
2017-11-08T04:38:57.105Z,56.23
2017-11-08T04:41:59.330Z,45.43
2017-11-08T04:45:01.263Z,57.10
2017-11-08T04:48:03.479Z,48.20
2017-11-08T04:51:06.121Z,50.27
2017-11-08T04:54:09.083Z,47.03
2017-11-08T04:57:11.071Z,48.03
2017-11-08T05:00:13.083Z,50.57
2017-11-08T05:03:15.789Z,46.13
2017-11-08T05:06:18.588Z,45.10
2017-11-08T05:09:21.357Z,43.90
2017-11-08T05:12:23.308Z,47.20
2017-11-08T05:15:25.252Z,49.13
2017-11-08T05:18:27.949Z,44.30
2017-11-08T05:21:30.753Z,48.23
2017-11-08T05:24:32.700Z,46.27
2017-11-08T05:27:34.696Z,47.90
2017-11-08T05:30:37.008Z,46.80
2017-11-08T05:33:39.774Z,42.70
2017-11-08T05:36:41.818Z,42.10
2017-11-08T05:39:43.733Z,47.50
2017-11-08T05:42:45.930Z,49.73
2017-11-08T05:45:47.935Z,46.20
2017-11-08T05:48:49.855Z,46.63
2017-11-08T05:51:51.777Z,48.67
2017-11-08T05:54:53.944Z,53.33
2017-11-08T05:57:55.837Z,52.60
2017-11-08T06:00:58.049Z,52.43
2017-11-08T06:04:00.016Z,51.50
2017-11-08T06:07:02.026Z,51.03
2017-11-08T06:10:03.928Z,50.33
2017-11-08T06:13:06.884Z,50.97
2017-11-08T06:16:08.870Z,58.53
2017-11-08T06:19:10.849Z,48.70
2017-11-08T06:22:12.861Z,51.10
2017-11-08T06:25:14.789Z,56.37
2017-11-08T06:28:16.708Z,60.87
2017-11-08T06:31:18.651Z,59.57
2017-11-08T06:34:20.571Z,59.63
2017-11-08T06:37:22.838Z,62.13
2017-11-08T06:40:25.569Z,59.80
2017-11-08T06:43:27.719Z,65.13
2017-11-08T06:46:29.711Z,58.00
2017-11-08T06:49:31.703Z,50.67
2017-11-08T06:52:33.606Z,58.60
2017-11-08T06:55:35.875Z,57.60
2017-11-08T06:58:37.858Z,68.57
2017-11-08T07:01:39.786Z,64.50
2017-11-08T07:04:42.567Z,59.80
2017-11-08T07:07:44.502Z,64.27
2017-11-08T07:10:46.431Z,64.87
2017-11-08T07:13:49.411Z,69.00
2017-11-08T07:16:51.409Z,69.80
2017-11-08T07:19:54.085Z,65.47
2017-11-08T07:22:56.094Z,64.03
2017-11-08T07:25:58.063Z,66.13
2017-11-08T07:29:00.087Z,64.60
2017-11-08T07:32:02.858Z,64.07
2017-11-08T07:35:04.850Z,72.50
2017-11-08T07:38:06.817Z,71.03
2017-11-08T07:41:08.748Z,65.67
2017-11-08T07:44:10.671Z,65.33
2017-11-08T07:47:12.595Z,71.17
2017-11-08T07:50:15.289Z,70.80
2017-11-08T07:53:17.272Z,69.73
2017-11-08T07:56:19.993Z,69.57
2017-11-08T07:59:22.006Z,67.33
2017-11-08T08:02:24.043Z,68.07
2017-11-08T08:05:26.707Z,61.33
2017-11-08T08:08:29.027Z,66.10
2017-11-08T08:11:30.940Z,62.60
2017-11-08T08:14:33.179Z,67.53
2017-11-08T08:17:35.911Z,51.13
2017-11-08T08:20:38.993Z,64.00
2017-11-08T08:23:40.902Z,63.47
2017-11-08T08:26:43.600Z,59.87
2017-11-08T08:29:46.291Z,65.63
2017-11-08T08:32:49.094Z,69.47
2017-11-08T08:35:50.992Z,71.73
2017-11-08T08:38:54.158Z,71.30
2017-11-08T08:41:56.183Z,76.17
2017-11-08T08:44:58.213Z,68.90
2017-11-08T08:48:00.214Z,68.30
2017-11-08T08:51:02.198Z,71.20
2017-11-08T08:54:04.094Z,63.00
2017-11-08T08:57:06.158Z,67.40
2017-11-08T09:00:08.049Z,71.30
2017-11-08T09:03:10.037Z,74.50
2017-11-08T09:06:12.017Z,62.50
2017-11-08T09:09:13.952Z,67.67
2017-11-08T09:12:15.869Z,71.67
2017-11-08T09:15:17.863Z,68.77
2017-11-08T09:18:19.859Z,62.50
2017-11-08T09:21:21.783Z,64.03
2017-11-08T09:24:23.724Z,75.57
2017-11-08T09:27:25.662Z,64.87
2017-11-08T09:30:27.569Z,68.63
2017-11-08T09:33:29.512Z,61.90
2017-11-08T09:36:31.513Z,62.47
2017-11-08T09:39:33.439Z,68.93
2017-11-08T09:42:35.343Z,63.57
2017-11-08T09:45:38.058Z,71.43
2017-11-08T09:48:39.955Z,70.57
2017-11-08T09:51:42.814Z,67.80
2017-11-08T09:54:44.787Z,67.30
2017-11-08T09:57:46.765Z,61.30
2017-11-08T10:00:48.685Z,71.47
2017-11-08T10:03:50.660Z,70.53
2017-11-08T10:06:52.617Z,64.33
2017-11-08T10:09:54.647Z,65.20
2017-11-08T10:12:56.550Z,69.97
2017-11-08T10:15:58.523Z,71.53
2017-11-08T10:19:01.150Z,65.47
2017-11-08T10:22:03.869Z,66.87
2017-11-08T10:25:05.881Z,77.43
2017-11-08T10:28:08.681Z,71.77
2017-11-08T10:31:11.353Z,64.67
2017-11-08T10:34:14.146Z,63.13
2017-11-08T10:37:16.065Z,65.50
2017-11-08T10:40:18.861Z,69.73
2017-11-08T10:43:21.631Z,72.70
2017-11-08T10:46:24.320Z,71.07
2017-11-08T10:49:27.001Z,66.03
2017-11-08T10:52:28.918Z,66.47
2017-11-08T10:55:30.821Z,69.57
2017-11-08T10:58:32.774Z,70.07
2017-11-08T11:01:35.439Z,66.87
2017-11-08T11:04:37.389Z,67.93
2017-11-08T11:07:39.292Z,74.23
2017-11-08T11:10:41.212Z,65.83
2017-11-08T11:13:43.159Z,77.20
2017-11-08T11:16:45.104Z,70.10
2017-11-08T11:19:47.042Z,68.30
2017-11-08T11:22:48.971Z,73.67
2017-11-08T11:25:50.922Z,76.13
2017-11-08T11:28:53.811Z,67.97
2017-11-08T11:31:55.708Z,74.37
2017-11-08T11:34:58.397Z,72.27
2017-11-08T11:38:00.317Z,74.27
2017-11-08T11:41:02.266Z,68.37
2017-11-08T11:44:04.194Z,71.13
2017-11-08T11:47:06.187Z,68.73
2017-11-08T11:50:08.117Z,79.57
2017-11-08T11:53:10.065Z,90.43
2017-11-08T11:56:11.970Z,73.40
2017-11-08T11:59:13.888Z,66.93
2017-11-08T12:02:16.557Z,71.90
2017-11-08T12:05:20.069Z,77.50
2017-11-08T12:08:22.557Z,81.40
2017-11-08T12:11:24.475Z,76.43
2017-11-08T12:14:27.163Z,88.43
2017-11-08T12:17:29.125Z,75.67
2017-11-08T12:20:31.051Z,76.30
2017-11-08T12:23:33.939Z,74.70
2017-11-08T12:26:37.587Z,75.23
2017-11-08T12:29:40.272Z,77.73
2017-11-08T12:32:42.185Z,69.00
2017-11-08T12:35:44.135Z,79.10
2017-11-08T12:38:46.834Z,79.50
2017-11-08T12:41:48.779Z,77.77
2017-11-08T12:44:50.723Z,84.67
2017-11-08T12:47:52.642Z,77.97
2017-11-08T12:50:54.566Z,75.03
2017-11-08T12:53:57.255Z,68.13
2017-11-08T12:56:59.175Z,72.07
2017-11-08T13:00:01.879Z,72.27
2017-11-08T13:03:04.575Z,82.03
2017-11-08T13:06:07.295Z,75.87
2017-11-08T13:09:09.215Z,82.83
2017-11-08T13:12:11.138Z,79.13
2017-11-08T13:15:13.834Z,85.10
2017-11-08T13:18:16.594Z,77.73
2017-11-08T13:21:18.495Z,84.13
2017-11-08T13:24:20.415Z,83.80
2017-11-08T13:27:22.339Z,82.93
2017-11-08T13:30:24.661Z,88.33
2017-11-08T13:33:26.744Z,87.80
2017-11-08T13:36:28.686Z,82.63
2017-11-08T13:39:30.580Z,85.00
2017-11-08T13:42:32.905Z,80.40
2017-11-08T13:45:34.822Z,83.43
2017-11-08T13:48:37.252Z,84.47
2017-11-08T13:51:39.152Z,88.50
2017-11-08T13:54:41.226Z,91.43
2017-11-08T13:57:43.936Z,93.23
2017-11-08T14:00:46.244Z,82.60
2017-11-08T14:03:48.911Z,89.53
2017-11-08T14:06:50.829Z,95.07
2017-11-08T14:09:53.511Z,85.57
2017-11-08T14:12:55.825Z,88.00
2017-11-08T14:15:58.524Z,82.30
2017-11-08T14:19:01.645Z,87.37
2017-11-08T14:22:03.553Z,79.80
2017-11-08T14:25:05.600Z,92.67
2017-11-08T14:28:09.203Z,84.73
2017-11-08T14:31:11.168Z,86.23
2017-11-08T14:34:13.152Z,84.57
2017-11-08T14:37:15.106Z,91.47
2017-11-08T14:40:17.010Z,86.87
2017-11-08T14:43:19.050Z,89.60
2017-11-08T14:46:21.010Z,83.87
2017-11-08T14:49:24.732Z,81.80
2017-11-08T14:52:26.655Z,85.37
2017-11-08T14:55:28.695Z,86.50
2017-11-08T14:58:30.605Z,80.60
2017-11-08T15:01:32.651Z,84.53
2017-11-08T15:04:34.646Z,86.20
2017-11-08T15:07:36.945Z,108.80
2017-11-08T15:10:39.423Z,117.13
2017-11-08T15:13:41.831Z,105.70
2017-11-08T15:16:43.787Z,88.03
2017-11-08T15:19:46.205Z,91.80
2017-11-08T15:22:48.226Z,82.50
2017-11-08T15:25:50.483Z,78.90
2017-11-08T15:28:52.574Z,80.47
2017-11-08T15:31:55.417Z,76.00
2017-11-08T15:34:57.327Z,78.53
2017-11-08T15:37:59.655Z,75.83
2017-11-08T15:41:02.450Z,77.73
2017-11-08T15:44:04.413Z,82.00
2017-11-08T15:47:06.342Z,84.63
2017-11-08T15:50:08.376Z,80.33
2017-11-08T15:53:11.206Z,78.93
2017-11-08T15:56:13.595Z,75.37
2017-11-08T15:59:15.557Z,75.07
2017-11-08T16:02:17.976Z,79.90
2017-11-08T16:05:20.659Z,71.30
2017-11-08T16:08:22.933Z,73.43
2017-11-08T16:11:24.830Z,75.87
2017-11-08T16:14:26.894Z,70.93
2017-11-08T16:17:28.922Z,78.80
2017-11-08T16:20:31.809Z,74.77
2017-11-08T16:23:34.487Z,75.33
2017-11-08T16:26:36.792Z,78.43
2017-11-08T16:29:38.768Z,79.90
2017-11-08T16:32:41.290Z,69.90
2017-11-08T16:35:44.060Z,82.87
2017-11-08T16:38:46.075Z,81.87
2017-11-08T16:41:48.876Z,80.87
2017-11-08T16:44:52.089Z,81.87
2017-11-08T16:47:54.879Z,79.53
2017-11-08T16:50:57.148Z,78.93
2017-11-08T16:53:59.136Z,79.97
2017-11-08T16:57:01.447Z,84.13
2017-11-08T17:00:03.382Z,75.03
2017-11-08T17:03:05.396Z,77.47
2017-11-08T17:06:07.326Z,76.97
2017-11-08T17:09:09.331Z,73.97
2017-11-08T17:12:11.366Z,77.13
2017-11-08T17:15:13.634Z,73.23
2017-11-08T17:18:15.639Z,83.73
2017-11-08T17:21:17.613Z,76.93
2017-11-08T17:24:19.601Z,76.17
2017-11-08T17:27:21.782Z,78.20
2017-11-08T17:30:23.936Z,74.80
2017-11-08T17:33:26.285Z,77.77
2017-11-08T17:36:28.975Z,77.90
2017-11-08T17:39:31.687Z,80.93
2017-11-08T17:42:34.477Z,87.33
2017-11-08T17:45:36.431Z,80.23
2017-11-08T17:48:38.443Z,77.10
2017-11-08T17:51:41.228Z,86.47
2017-11-08T17:54:43.119Z,75.80
2017-11-08T17:57:45.088Z,81.50
2017-11-08T18:00:46.995Z,77.37
2017-11-08T18:03:49.902Z,81.80
2017-11-08T18:06:52.604Z,74.67
2017-11-08T18:09:55.392Z,80.77
2017-11-08T18:12:57.359Z,73.13
2017-11-08T18:16:00.466Z,77.60
2017-11-08T18:19:02.486Z,73.57
2017-11-08T18:22:05.584Z,76.30
2017-11-08T18:25:08.286Z,77.57
2017-11-08T18:28:11.100Z,73.17
2017-11-08T18:31:13.761Z,74.63
2017-11-08T18:34:15.768Z,78.43
2017-11-08T18:37:18.541Z,77.13
2017-11-08T18:40:21.676Z,79.00
2017-11-08T18:43:24.419Z,77.27
2017-11-08T18:46:26.703Z,76.27
2017-11-08T18:49:28.632Z,72.20
2017-11-08T18:52:30.949Z,82.63
2017-11-08T18:55:33.724Z,64.07
2017-11-08T18:58:36.839Z,70.17
2017-11-08T19:01:38.778Z,72.93
2017-11-08T19:04:41.199Z,78.67
2017-11-08T19:07:43.138Z,64.97
2017-11-08T19:10:45.096Z,78.13
2017-11-08T19:13:47.794Z,67.37
2017-11-08T19:16:50.912Z,70.47
2017-11-08T19:19:53.800Z,75.73
2017-11-08T19:22:55.763Z,71.77
2017-11-08T19:25:57.739Z,65.53
2017-11-08T19:29:00.395Z,76.00
2017-11-08T19:32:02.382Z,66.67
2017-11-08T19:35:04.715Z,67.83
2017-11-08T19:38:06.639Z,62.10
2017-11-08T19:41:09.772Z,74.87
2017-11-08T19:44:11.684Z,75.63
2017-11-08T19:47:13.791Z,63.97
2017-11-08T19:50:15.727Z,72.33
2017-11-08T19:53:17.996Z,66.80
2017-11-08T19:56:20.763Z,68.07
2017-11-08T19:59:22.757Z,69.03
2017-11-08T20:02:24.741Z,71.00
2017-11-08T20:05:27.547Z,73.30
2017-11-08T20:08:30.323Z,59.53
2017-11-08T20:11:32.262Z,67.83
2017-11-08T20:14:34.230Z,64.93
2017-11-08T20:17:37.132Z,64.30
2017-11-08T20:20:40.237Z,63.80
2017-11-08T20:23:43.867Z,64.70
2017-11-08T20:26:46.120Z,64.67
2017-11-08T20:29:49.161Z,66.47
2017-11-08T20:32:52.683Z,73.23
2017-11-08T20:35:56.002Z,64.00
2017-11-08T20:38:58.283Z,65.33
2017-11-08T20:42:01.287Z,64.87
2017-11-08T20:45:04.029Z,77.00
2017-11-08T20:48:06.430Z,74.23
2017-11-08T20:51:08.333Z,64.97
2017-11-08T20:54:10.549Z,59.83
2017-11-08T20:57:13.318Z,60.43
2017-11-08T21:00:15.425Z,66.07
2017-11-08T21:03:18.244Z,63.87
2017-11-08T21:06:21.319Z,64.27
2017-11-08T21:09:23.316Z,63.00
2017-11-08T21:12:25.297Z,66.47
2017-11-08T21:15:27.282Z,59.13
2017-11-08T21:18:29.238Z,61.10
2017-11-08T21:21:31.140Z,64.83
2017-11-08T21:24:34.122Z,61.87
2017-11-08T21:27:36.353Z,66.10
2017-11-08T21:30:39.309Z,62.30
2017-11-08T21:33:41.231Z,59.00
2017-11-08T21:36:43.158Z,58.47
2017-11-08T21:39:45.057Z,63.00
2017-11-08T21:42:47.109Z,66.17
2017-11-08T21:45:49.031Z,56.80
2017-11-08T21:48:51.026Z,64.70
2017-11-08T21:51:53.013Z,58.57
2017-11-08T21:54:55.803Z,59.67
2017-11-08T21:57:57.803Z,59.47
2017-11-08T22:00:59.776Z,57.60
2017-11-08T22:04:01.752Z,62.17
2017-11-08T22:07:03.741Z,61.13
2017-11-08T22:10:05.635Z,61.17
2017-11-08T22:13:07.612Z,59.20
2017-11-08T22:16:09.503Z,65.87
2017-11-08T22:19:11.457Z,63.80
2017-11-08T22:22:13.471Z,61.00
2017-11-08T22:25:15.410Z,58.27
2017-11-08T22:28:17.337Z,61.73
2017-11-08T22:31:20.027Z,60.83
2017-11-08T22:34:21.927Z,63.10
2017-11-08T22:37:25.118Z,58.93
2017-11-08T22:40:27.047Z,60.80
2017-11-08T22:43:29.076Z,60.73
2017-11-08T22:46:30.977Z,62.27
2017-11-08T22:49:32.989Z,60.97
2017-11-08T22:52:34.920Z,59.13
2017-11-08T22:55:36.869Z,59.33
2017-11-08T22:58:38.815Z,67.50
2017-11-08T23:01:41.531Z,59.27
2017-11-08T23:04:45.005Z,61.23
2017-11-08T23:07:46.948Z,60.50
2017-11-08T23:10:48.972Z,65.33
2017-11-08T23:13:50.916Z,62.93
2017-11-08T23:16:53.546Z,62.23
2017-11-08T23:19:55.838Z,59.27
2017-11-08T23:22:57.846Z,63.30
2017-11-08T23:26:00.338Z,62.53
2017-11-08T23:29:02.242Z,60.67
2017-11-08T23:32:05.315Z,58.20
2017-11-08T23:35:07.315Z,58.53
2017-11-08T23:38:10.840Z,62.77
2017-11-08T23:41:13.498Z,66.83
2017-11-08T23:44:15.752Z,64.00
2017-11-08T23:47:17.805Z,56.23
2017-11-08T23:50:20.067Z,59.97
2017-11-08T23:53:21.982Z,61.60
2017-11-08T23:56:23.903Z,61.47
2017-11-08T23:59:25.809Z,68.13
